sensor_id;sensor_type;location;lat;lon;timestamp;pressure;altitude;pressure_sealevel;temperature;humidity
44992;BME280;56865;51.618;7.406;2023-02-08T00:00:22;103126.97;;;7.63;100.00
44992;BME280;56865;51.618;7.406;2023-02-08T00:02:53;103128.25;;;7.58;100.00
44992;BME280;56865;51.618;7.406;2023-02-08T00:05:45;103129.72;;;7.98;100.00
44992;BME280;56865;51.618;7.406;2023-02-08T00:08:20;103129.94;;;7.79;100.00
44992;BME280;56865;51.618;7.406;2023-02-08T00:11:06;103129.50;;;7.63;100.00
44992;BME280;56865;51.618;7.406;2023-02-08T00:13:41;103124.69;;;7.66;100.00
44992;BME280;56865;51.618;7.406;2023-02-08T00:16:13;103133.44;;;7.59;100.00
44992;BME280;56865;51.618;7.406;2023-02-08T00:18:44;103129.53;;;7.53;100.00
44992;BME280;56865;51.618;7.406;2023-02-08T00:21:14;103128.34;;;7.59;100.00
44992;BME280;56865;51.618;7.406;2023-02-08T00:23:46;103129.75;;;7.56;100.00
44992;BME280;56865;51.618;7.406;2023-02-08T00:26:16;103130.22;;;7.29;100.00
44992;BME280;56865;51.618;7.406;2023-02-08T00:28:49;103131.34;;;7.33;100.00
44992;BME280;56865;51.618;7.406;2023-02-08T00:31:19;103123.66;;;7.64;100.00
44992;BME280;56865;51.618;7.406;2023-02-08T00:33:49;103129.41;;;7.41;100.00
44992;BME280;56865;51.618;7.406;2023-02-08T00:36:18;103118.41;;;7.40;100.00
44992;BME280;56865;51.618;7.406;2023-02-08T00:38:48;103108.97;;;7.49;100.00
44992;BME280;56865;51.618;7.406;2023-02-08T00:41:18;103106.06;;;7.55;100.00
44992;BME280;56865;51.618;7.406;2023-02-08T00:43:50;103108.81;;;7.58;100.00
44992;BME280;56865;51.618;7.406;2023-02-08T00:46:20;103106.28;;;7.26;100.00
44992;BME280;56865;51.618;7.406;2023-02-08T00:48:52;103096.38;;;7.94;100.00
44992;BME280;56865;51.618;7.406;2023-02-08T00:51:24;103101.03;;;7.77;99.86
44992;BME280;56865;51.618;7.406;2023-02-08T00:53:54;103098.38;;;7.43;99.50
44992;BME280;56865;51.618;7.406;2023-02-08T00:56:23;103096.00;;;7.57;100.00
44992;BME280;56865;51.618;7.406;2023-02-08T00:58:56;103083.25;;;7.45;100.00
44992;BME280;56865;51.618;7.406;2023-02-08T01:01:26;103097.13;;;7.28;100.00
44992;BME280;56865;51.618;7.406;2023-02-08T01:03:56;103093.31;;;7.23;100.00
44992;BME280;56865;51.618;7.406;2023-02-08T01:06:30;103096.53;;;7.53;99.82
44992;BME280;56865;51.618;7.406;2023-02-08T01:08:59;103093.00;;;7.51;100.00
44992;BME280;56865;51.618;7.406;2023-02-08T01:11:29;103088.13;;;7.64;100.00
44992;BME280;56865;51.618;7.406;2023-02-08T01:14:01;103081.91;;;7.28;99.65
44992;BME280;56865;51.618;7.406;2023-02-08T01:16:32;103089.00;;;7.32;100.00
44992;BME280;56865;51.618;7.406;2023-02-08T01:19:02;103082.66;;;7.37;100.00
44992;BME280;56865;51.618;7.406;2023-02-08T01:21:33;103087.88;;;7.61;100.00
44992;BME280;56865;51.618;7.406;2023-02-08T01:24:03;103092.16;;;7.40;100.00
44992;BME280;56865;51.618;7.406;2023-02-08T01:26:32;103089.84;;;7.43;100.00
44992;BME280;56865;51.618;7.406;2023-02-08T01:29:05;103084.44;;;7.28;100.00
44992;BME280;56865;51.618;7.406;2023-02-08T01:31:36;103084.47;;;7.18;100.00
44992;BME280;56865;51.618;7.406;2023-02-08T01:34:06;103092.91;;;7.39;99.95
44992;BME280;56865;51.618;7.406;2023-02-08T01:36:36;103086.59;;;7.34;100.00
44992;BME280;56865;51.618;7.406;2023-02-08T01:39:06;103087.31;;;7.43;100.00
44992;BME280;56865;51.618;7.406;2023-02-08T01:41:37;103084.53;;;7.40;100.00
44992;BME280;56865;51.618;7.406;2023-02-08T01:46:56;103074.88;;;7.36;100.00
44992;BME280;56865;51.618;7.406;2023-02-08T01:49:26;103078.88;;;7.22;100.00
44992;BME280;56865;51.618;7.406;2023-02-08T01:51:57;103083.16;;;7.33;100.00
44992;BME280;56865;51.618;7.406;2023-02-08T01:54:31;103074.56;;;7.21;100.00
44992;BME280;56865;51.618;7.406;2023-02-08T01:57:02;103074.25;;;7.48;100.00
44992;BME280;56865;51.618;7.406;2023-02-08T01:59:33;103069.75;;;7.24;99.35
44992;BME280;56865;51.618;7.406;2023-02-08T02:02:10;103064.03;;;7.26;99.81
44992;BME280;56865;51.618;7.406;2023-02-08T02:04:41;103060.31;;;7.33;99.80
44992;BME280;56865;51.618;7.406;2023-02-08T02:07:10;103062.66;;;7.20;100.00
44992;BME280;56865;51.618;7.406;2023-02-08T02:09:41;103065.81;;;7.27;97.92
44992;BME280;56865;51.618;7.406;2023-02-08T02:12:12;103071.13;;;7.63;99.35
44992;BME280;56865;51.618;7.406;2023-02-08T02:14:43;103065.88;;;7.39;100.00
44992;BME280;56865;51.618;7.406;2023-02-08T02:17:15;103062.84;;;7.43;100.00
44992;BME280;56865;51.618;7.406;2023-02-08T02:19:48;103070.09;;;7.39;100.00
44992;BME280;56865;51.618;7.406;2023-02-08T02:28:03;103062.41;;;7.16;100.00
44992;BME280;56865;51.618;7.406;2023-02-08T02:33:32;103060.91;;;7.51;100.00
44992;BME280;56865;51.618;7.406;2023-02-08T03:53:21;103066.47;;;7.04;100.00
44992;BME280;56865;51.618;7.406;2023-02-08T03:55:51;103062.94;;;7.02;99.53
44992;BME280;56865;51.618;7.406;2023-02-08T03:58:24;103064.72;;;7.03;99.84
44992;BME280;56865;51.618;7.406;2023-02-08T04:00:57;103058.38;;;6.98;99.68
44992;BME280;56865;51.618;7.406;2023-02-08T04:03:29;103062.47;;;6.86;100.00
44992;BME280;56865;51.618;7.406;2023-02-08T04:06:00;103059.28;;;6.78;100.00
44992;BME280;56865;51.618;7.406;2023-02-08T04:08:33;103057.66;;;6.78;100.00
44992;BME280;56865;51.618;7.406;2023-02-08T04:11:04;103063.72;;;6.91;100.00
44992;BME280;56865;51.618;7.406;2023-02-08T04:13:40;103059.16;;;6.87;100.00
44992;BME280;56865;51.618;7.406;2023-02-08T04:16:10;103056.25;;;6.82;100.00
44992;BME280;56865;51.618;7.406;2023-02-08T04:18:42;103063.88;;;6.82;100.00
44992;BME280;56865;51.618;7.406;2023-02-08T04:21:12;103067.91;;;6.90;100.00
44992;BME280;56865;51.618;7.406;2023-02-08T04:23:45;103072.84;;;6.89;100.00
44992;BME280;56865;51.618;7.406;2023-02-08T04:26:15;103068.66;;;6.79;100.00
44992;BME280;56865;51.618;7.406;2023-02-08T04:28:47;103071.31;;;6.80;100.00
44992;BME280;56865;51.618;7.406;2023-02-08T04:31:16;103065.25;;;6.89;100.00
44992;BME280;56865;51.618;7.406;2023-02-08T04:33:46;103062.31;;;6.84;100.00
44992;BME280;56865;51.618;7.406;2023-02-08T04:36:16;103067.16;;;6.81;100.00
44992;BME280;56865;51.618;7.406;2023-02-08T04:38:48;103068.03;;;6.81;99.79
44992;BME280;56865;51.618;7.406;2023-02-08T04:41:18;103058.38;;;6.88;100.00
44992;BME280;56865;51.618;7.406;2023-02-08T04:43:48;103066.13;;;6.89;100.00
44992;BME280;56865;51.618;7.406;2023-02-08T04:46:17;103071.84;;;6.76;100.00
44992;BME280;56865;51.618;7.406;2023-02-08T04:48:47;103069.56;;;6.59;100.00
44992;BME280;56865;51.618;7.406;2023-02-08T04:51:17;103076.91;;;6.76;99.61
44992;BME280;56865;51.618;7.406;2023-02-08T04:53:49;103067.03;;;6.69;98.72
44992;BME280;56865;51.618;7.406;2023-02-08T04:56:19;103059.94;;;6.65;99.25
44992;BME280;56865;51.618;7.406;2023-02-08T04:58:48;103069.56;;;6.90;99.39
44992;BME280;56865;51.618;7.406;2023-02-08T05:01:18;103066.00;;;6.46;98.94
44992;BME280;56865;51.618;7.406;2023-02-08T05:03:47;103068.81;;;6.49;100.00
44992;BME280;56865;51.618;7.406;2023-02-08T05:06:20;103067.91;;;6.49;98.99
44992;BME280;56865;51.618;7.406;2023-02-08T05:08:52;103067.03;;;6.48;99.28
44992;BME280;56865;51.618;7.406;2023-02-08T05:11:24;103063.34;;;6.45;99.54
44992;BME280;56865;51.618;7.406;2023-02-08T05:13:54;103069.84;;;6.52;100.00
44992;BME280;56865;51.618;7.406;2023-02-08T05:16:24;103068.19;;;6.42;100.00
44992;BME280;56865;51.618;7.406;2023-02-08T05:18:55;103066.53;;;6.42;99.88
44992;BME280;56865;51.618;7.406;2023-02-08T05:21:25;103063.59;;;6.38;99.27
44992;BME280;56865;51.618;7.406;2023-02-08T05:23:57;103070.56;;;6.71;99.10
44992;BME280;56865;51.618;7.406;2023-02-08T05:26:27;103061.84;;;6.47;98.51
44992;BME280;56865;51.618;7.406;2023-02-08T05:28:56;103066.91;;;6.37;99.24
44992;BME280;56865;51.618;7.406;2023-02-08T05:31:26;103068.06;;;6.40;98.54
44992;BME280;56865;51.618;7.406;2023-02-08T05:33:56;103071.34;;;6.39;98.14
44992;BME280;56865;51.618;7.406;2023-02-08T05:36:25;103077.78;;;6.36;98.32
44992;BME280;56865;51.618;7.406;2023-02-08T05:38:58;103066.00;;;6.36;99.48
44992;BME280;56865;51.618;7.406;2023-02-08T05:41:27;103072.19;;;6.19;97.51
44992;BME280;56865;51.618;7.406;2023-02-08T05:43:57;103081.19;;;6.15;98.23
44992;BME280;56865;51.618;7.406;2023-02-08T05:46:26;103080.75;;;6.00;97.99
44992;BME280;56865;51.618;7.406;2023-02-08T05:48:56;103079.91;;;6.21;99.29
44992;BME280;56865;51.618;7.406;2023-02-08T05:51:26;103073.47;;;6.14;99.05
44992;BME280;56865;51.618;7.406;2023-02-08T05:53:58;103086.06;;;6.04;97.97
44992;BME280;56865;51.618;7.406;2023-02-08T05:56:28;103085.63;;;6.18;98.74
44992;BME280;56865;51.618;7.406;2023-02-08T05:58:58;103080.66;;;6.09;98.95
44992;BME280;56865;51.618;7.406;2023-02-08T06:01:28;103083.38;;;6.31;98.77
44992;BME280;56865;51.618;7.406;2023-02-08T06:03:58;103082.69;;;6.13;97.41
44992;BME280;56865;51.618;7.406;2023-02-08T06:06:28;103088.38;;;6.21;100.00
44992;BME280;56865;51.618;7.406;2023-02-08T06:09:00;103098.69;;;6.23;99.29
44992;BME280;56865;51.618;7.406;2023-02-08T06:11:30;103091.34;;;6.36;99.90
44992;BME280;56865;51.618;7.406;2023-02-08T06:14:01;103095.88;;;6.30;99.47
44992;BME280;56865;51.618;7.406;2023-02-08T06:16:31;103088.22;;;5.99;97.90
44992;BME280;56865;51.618;7.406;2023-02-08T06:19:03;103094.34;;;6.11;98.37
44992;BME280;56865;51.618;7.406;2023-02-08T06:21:35;103091.56;;;6.18;98.90
44992;BME280;56865;51.618;7.406;2023-02-08T06:24:08;103087.84;;;6.05;99.62
44992;BME280;56865;51.618;7.406;2023-02-08T06:26:42;103088.38;;;6.11;100.00
44992;BME280;56865;51.618;7.406;2023-02-08T06:29:12;103086.13;;;6.14;100.00
44992;BME280;56865;51.618;7.406;2023-02-08T06:31:43;103076.00;;;6.14;98.49
44992;BME280;56865;51.618;7.406;2023-02-08T06:34:13;103083.59;;;6.14;99.47
44992;BME280;56865;51.618;7.406;2023-02-08T06:36:46;103079.44;;;6.66;100.00
44992;BME280;56865;51.618;7.406;2023-02-08T06:39:19;103073.13;;;6.40;99.39
44992;BME280;56865;51.618;7.406;2023-02-08T06:41:54;103065.47;;;6.09;97.80
44992;BME280;56865;51.618;7.406;2023-02-08T06:44:31;103062.00;;;5.98;98.43
44992;BME280;56865;51.618;7.406;2023-02-08T06:47:01;103062.09;;;5.90;97.41
44992;BME280;56865;51.618;7.406;2023-02-08T06:49:32;103058.13;;;6.12;99.48
44992;BME280;56865;51.618;7.406;2023-02-08T06:52:02;103055.34;;;6.09;99.55
44992;BME280;56865;51.618;7.406;2023-02-08T06:54:37;103060.13;;;6.06;99.14
44992;BME280;56865;51.618;7.406;2023-02-08T06:57:14;103052.94;;;6.11;99.17
44992;BME280;56865;51.618;7.406;2023-02-08T06:59:44;103055.63;;;5.93;97.84
44992;BME280;56865;51.618;7.406;2023-02-08T07:02:17;103052.03;;;6.00;98.79
44992;BME280;56865;51.618;7.406;2023-02-08T07:04:47;103049.50;;;6.00;98.59
44992;BME280;56865;51.618;7.406;2023-02-08T07:07:17;103051.25;;;6.01;99.28
44992;BME280;56865;51.618;7.406;2023-02-08T07:09:52;103051.88;;;5.98;98.58
44992;BME280;56865;51.618;7.406;2023-02-08T07:12:22;103046.47;;;6.04;98.64
44992;BME280;56865;51.618;7.406;2023-02-08T07:14:52;103054.59;;;6.10;99.33
44992;BME280;56865;51.618;7.406;2023-02-08T07:17:21;103055.13;;;5.97;98.42
44992;BME280;56865;51.618;7.406;2023-02-08T07:19:51;103047.41;;;5.96;98.70
44992;BME280;56865;51.618;7.406;2023-02-08T07:22:21;103045.47;;;6.12;97.52
44992;BME280;56865;51.618;7.406;2023-02-08T07:24:53;103042.44;;;6.37;98.93
44992;BME280;56865;51.618;7.406;2023-02-08T07:27:22;103044.88;;;6.46;98.30
44992;BME280;56865;51.618;7.406;2023-02-08T07:29:52;103040.81;;;6.69;100.00
44992;BME280;56865;51.618;7.406;2023-02-08T07:32:22;103039.31;;;6.60;97.85
44992;BME280;56865;51.618;7.406;2023-02-08T07:34:52;103034.84;;;6.58;99.42
44992;BME280;56865;51.618;7.406;2023-02-08T07:37:24;103035.47;;;6.86;99.56
44992;BME280;56865;51.618;7.406;2023-02-08T07:39:56;103039.13;;;6.69;99.72
44992;BME280;56865;51.618;7.406;2023-02-08T07:42:25;103040.78;;;6.79;100.00
44992;BME280;56865;51.618;7.406;2023-02-08T07:44:55;103040.16;;;6.71;98.96
44992;BME280;56865;51.618;7.406;2023-02-08T07:47:25;103039.38;;;6.82;100.00
44992;BME280;56865;51.618;7.406;2023-02-08T07:49:55;103048.53;;;6.91;100.00
44992;BME280;56865;51.618;7.406;2023-02-08T07:52:24;103045.97;;;6.91;99.38
44992;BME280;56865;51.618;7.406;2023-02-08T07:54:59;103052.81;;;7.02;100.00
44992;BME280;56865;51.618;7.406;2023-02-08T07:57:29;103044.44;;;7.03;100.00
44992;BME280;56865;51.618;7.406;2023-02-08T07:59:58;103047.19;;;7.16;100.00
44992;BME280;56865;51.618;7.406;2023-02-08T08:02:28;103046.00;;;7.34;100.00
44992;BME280;56865;51.618;7.406;2023-02-08T08:04:58;103045.16;;;7.55;100.00
44992;BME280;56865;51.618;7.406;2023-02-08T08:07:28;103039.84;;;7.74;100.00
44992;BME280;56865;51.618;7.406;2023-02-08T08:10:00;103043.16;;;7.73;100.00
44992;BME280;56865;51.618;7.406;2023-02-08T08:12:30;103044.41;;;8.01;100.00
44992;BME280;56865;51.618;7.406;2023-02-08T08:14:59;103047.03;;;8.02;100.00
44992;BME280;56865;51.618;7.406;2023-02-08T08:17:29;103050.22;;;8.22;100.00
44992;BME280;56865;51.618;7.406;2023-02-08T08:19:59;103038.56;;;8.36;100.00
44992;BME280;56865;51.618;7.406;2023-02-08T08:22:29;103034.31;;;8.47;100.00
44992;BME280;56865;51.618;7.406;2023-02-08T08:25:01;103032.56;;;8.57;100.00
44992;BME280;56865;51.618;7.406;2023-02-08T08:27:31;103046.19;;;8.70;100.00
44992;BME280;56865;51.618;7.406;2023-02-08T08:30:00;103048.53;;;8.78;100.00
44992;BME280;56865;51.618;7.406;2023-02-08T08:32:30;103045.97;;;8.78;100.00
44992;BME280;56865;51.618;7.406;2023-02-08T08:35:00;103039.25;;;9.15;100.00
44992;BME280;56865;51.618;7.406;2023-02-08T08:37:29;103037.34;;;9.24;100.00
44992;BME280;56865;51.618;7.406;2023-02-08T08:40:02;103037.03;;;9.31;100.00
44992;BME280;56865;51.618;7.406;2023-02-08T08:42:36;103034.91;;;9.37;100.00
44992;BME280;56865;51.618;7.406;2023-02-08T08:45:07;103037.13;;;9.33;100.00
44992;BME280;56865;51.618;7.406;2023-02-08T08:47:37;103034.88;;;9.49;100.00
44992;BME280;56865;51.618;7.406;2023-02-08T08:50:08;103029.34;;;9.55;100.00
44992;BME280;56865;51.618;7.406;2023-02-08T08:52:38;103021.34;;;9.62;100.00
44992;BME280;56865;51.618;7.406;2023-02-08T08:55:13;103019.78;;;9.64;100.00
44992;BME280;56865;51.618;7.406;2023-02-08T08:57:42;103020.66;;;9.76;100.00
44992;BME280;56865;51.618;7.406;2023-02-08T09:00:13;103026.84;;;9.80;100.00
44992;BME280;56865;51.618;7.406;2023-02-08T09:02:43;103022.44;;;9.78;100.00
44992;BME280;56865;51.618;7.406;2023-02-08T09:05:12;103028.56;;;9.93;100.00
44992;BME280;56865;51.618;7.406;2023-02-08T09:07:42;103027.00;;;9.95;100.00
44992;BME280;56865;51.618;7.406;2023-02-08T09:10:14;103024.91;;;9.89;100.00
44992;BME280;56865;51.618;7.406;2023-02-08T09:12:44;103034.69;;;10.08;100.00
44992;BME280;56865;51.618;7.406;2023-02-08T09:15:14;103030.50;;;10.09;100.00
44992;BME280;56865;51.618;7.406;2023-02-08T09:17:43;103029.16;;;10.14;100.00
44992;BME280;56865;51.618;7.406;2023-02-08T09:20:13;103024.38;;;10.19;100.00
44992;BME280;56865;51.618;7.406;2023-02-08T09:22:43;103026.91;;;10.19;100.00
44992;BME280;56865;51.618;7.406;2023-02-08T09:25:15;103021.84;;;10.07;100.00
44992;BME280;56865;51.618;7.406;2023-02-08T09:27:45;103026.38;;;10.11;100.00
44992;BME280;56865;51.618;7.406;2023-02-08T09:30:15;103027.28;;;10.25;100.00
44992;BME280;56865;51.618;7.406;2023-02-08T09:32:44;103022.41;;;10.28;100.00
44992;BME280;56865;51.618;7.406;2023-02-08T09:35:14;103034.47;;;10.31;100.00
44992;BME280;56865;51.618;7.406;2023-02-08T09:37:43;103028.16;;;10.37;100.00
44992;BME280;56865;51.618;7.406;2023-02-08T09:40:20;103032.78;;;10.43;100.00
44992;BME280;56865;51.618;7.406;2023-02-08T09:42:53;103034.34;;;10.41;100.00
44992;BME280;56865;51.618;7.406;2023-02-08T09:45:28;103035.66;;;10.48;100.00
44992;BME280;56865;51.618;7.406;2023-02-08T09:48:05;103038.31;;;10.49;100.00
44992;BME280;56865;51.618;7.406;2023-02-08T09:50:41;103038.81;;;10.84;100.00
44992;BME280;56865;51.618;7.406;2023-02-08T09:53:15;103044.50;;;10.66;100.00
44992;BME280;56865;51.618;7.406;2023-02-08T09:55:49;103043.41;;;10.49;100.00
44992;BME280;56865;51.618;7.406;2023-02-08T09:58:28;103053.16;;;10.82;100.00
44992;BME280;56865;51.618;7.406;2023-02-08T10:00:59;103040.16;;;10.65;100.00
44992;BME280;56865;51.618;7.406;2023-02-08T10:03:33;103039.63;;;10.69;100.00
44992;BME280;56865;51.618;7.406;2023-02-08T10:06:04;103037.88;;;10.82;100.00
44992;BME280;56865;51.618;7.406;2023-02-08T10:08:34;103036.28;;;10.84;100.00
44992;BME280;56865;51.618;7.406;2023-02-08T10:11:17;103040.19;;;11.05;100.00
44992;BME280;56865;51.618;7.406;2023-02-08T10:13:56;103038.03;;;11.25;100.00
44992;BME280;56865;51.618;7.406;2023-02-08T10:16:41;103027.53;;;11.34;100.00
44992;BME280;56865;51.618;7.406;2023-02-08T10:19:19;103030.50;;;11.68;100.00
44992;BME280;56865;51.618;7.406;2023-02-08T10:21:57;103031.81;;;11.90;100.00
44992;BME280;56865;51.618;7.406;2023-02-08T10:24:35;103033.88;;;11.96;100.00
44992;BME280;56865;51.618;7.406;2023-02-08T10:27:13;103029.16;;;11.89;100.00
44992;BME280;56865;51.618;7.406;2023-02-08T10:29:57;103031.03;;;11.91;100.00
44992;BME280;56865;51.618;7.406;2023-02-08T10:32:38;103030.56;;;12.12;100.00
44992;BME280;56865;51.618;7.406;2023-02-08T10:35:13;103031.63;;;12.15;100.00
44992;BME280;56865;51.618;7.406;2023-02-08T10:37:45;103015.31;;;12.28;100.00
44992;BME280;56865;51.618;7.406;2023-02-08T10:40:20;103018.41;;;12.38;99.98
44992;BME280;56865;51.618;7.406;2023-02-08T10:43:10;103018.75;;;12.44;100.00
44992;BME280;56865;51.618;7.406;2023-02-08T10:45:44;103027.09;;;13.16;100.00
44992;BME280;56865;51.618;7.406;2023-02-08T10:48:16;103025.28;;;12.98;96.88
44992;BME280;56865;51.618;7.406;2023-02-08T10:50:50;103031.97;;;12.96;98.77
44992;BME280;56865;51.618;7.406;2023-02-08T10:53:20;103036.66;;;13.04;96.80
44992;BME280;56865;51.618;7.406;2023-02-08T10:55:49;103034.06;;;13.19;100.00
44992;BME280;56865;51.618;7.406;2023-02-08T10:58:23;103028.56;;;13.27;100.00
44992;BME280;56865;51.618;7.406;2023-02-08T11:00:53;103022.56;;;13.75;96.56
44992;BME280;56865;51.618;7.406;2023-02-08T11:03:25;103019.69;;;13.52;94.57
44992;BME280;56865;51.618;7.406;2023-02-08T11:05:57;103008.28;;;13.96;97.75
44992;BME280;56865;51.618;7.406;2023-02-08T11:08:28;103007.66;;;14.01;94.31
44992;BME280;56865;51.618;7.406;2023-02-08T11:11:01;103002.03;;;14.08;95.63
44992;BME280;56865;51.618;7.406;2023-02-08T11:13:36;103004.91;;;14.14;97.24
44992;BME280;56865;51.618;7.406;2023-02-08T11:16:08;103000.00;;;14.19;95.65
44992;BME280;56865;51.618;7.406;2023-02-08T11:18:48;102995.34;;;14.28;93.29
44992;BME280;56865;51.618;7.406;2023-02-08T11:21:22;102985.25;;;14.49;95.90
44992;BME280;56865;51.618;7.406;2023-02-08T11:23:57;102986.44;;;14.56;90.49
44992;BME280;56865;51.618;7.406;2023-02-08T11:26:36;102990.66;;;14.72;87.76
44992;BME280;56865;51.618;7.406;2023-02-08T11:29:14;102977.88;;;14.91;92.45
44992;BME280;56865;51.618;7.406;2023-02-08T11:31:58;102976.28;;;15.13;91.31
44992;BME280;56865;51.618;7.406;2023-02-08T11:34:35;102977.28;;;15.35;90.91
44992;BME280;56865;51.618;7.406;2023-02-08T11:37:13;102969.63;;;15.36;92.48
44992;BME280;56865;51.618;7.406;2023-02-08T11:39:47;102973.00;;;15.35;89.75
44992;BME280;56865;51.618;7.406;2023-02-08T11:42:24;102976.16;;;15.67;89.25
44992;BME280;56865;51.618;7.406;2023-02-08T11:45:01;102968.00;;;15.58;82.51
44992;BME280;56865;51.618;7.406;2023-02-08T11:47:49;102970.56;;;15.97;86.73
44992;BME280;56865;51.618;7.406;2023-02-08T11:50:33;102969.16;;;16.04;85.65
44992;BME280;56865;51.618;7.406;2023-02-08T11:53:16;102971.00;;;15.87;81.93
44992;BME280;56865;51.618;7.406;2023-02-08T11:56:16;102970.72;;;16.00;83.05
44992;BME280;56865;51.618;7.406;2023-02-08T11:59:17;102964.00;;;16.25;81.58
44992;BME280;56865;51.618;7.406;2023-02-08T12:02:01;102960.59;;;16.05;79.67
44992;BME280;56865;51.618;7.406;2023-02-08T12:05:01;102956.72;;;16.57;78.04
44992;BME280;56865;51.618;7.406;2023-02-08T12:07:44;102953.63;;;16.66;74.97
44992;BME280;56865;51.618;7.406;2023-02-08T12:13:58;102946.66;;;16.63;73.92
44992;BME280;56865;51.618;7.406;2023-02-08T12:30:05;102936.81;;;16.97;68.66
44992;BME280;56865;51.618;7.406;2023-02-08T12:32:53;102927.16;;;16.70;70.29
44992;BME280;56865;51.618;7.406;2023-02-08T12:38:37;102920.00;;;16.40;75.23
44992;BME280;56865;51.618;7.406;2023-02-08T12:41:40;102918.38;;;16.87;68.54
44992;BME280;56865;51.618;7.406;2023-02-08T12:44:22;102916.94;;;17.17;72.79
44992;BME280;56865;51.618;7.406;2023-02-08T12:47:01;102914.72;;;17.28;77.01
44992;BME280;56865;51.618;7.406;2023-02-08T12:49:47;102906.19;;;17.29;69.40
44992;BME280;56865;51.618;7.406;2023-02-08T12:52:24;102897.84;;;17.36;75.94
44992;BME280;56865;51.618;7.406;2023-02-08T12:55:25;102907.44;;;17.40;71.63
44992;BME280;56865;51.618;7.406;2023-02-08T12:58:25;102905.63;;;17.37;66.48
44992;BME280;56865;51.618;7.406;2023-02-08T13:01:11;102899.59;;;17.37;70.01
44992;BME280;56865;51.618;7.406;2023-02-08T13:03:54;102892.34;;;17.51;71.47
44992;BME280;56865;51.618;7.406;2023-02-08T13:06:35;102886.53;;;17.82;79.16
44992;BME280;56865;51.618;7.406;2023-02-08T13:09:33;102887.56;;;17.87;69.48
44992;BME280;56865;51.618;7.406;2023-02-08T13:12:12;102886.22;;;17.47;72.20
44992;BME280;56865;51.618;7.406;2023-02-08T13:14:46;102879.25;;;17.70;62.59
44992;BME280;56865;51.618;7.406;2023-02-08T13:17:20;102867.69;;;17.85;68.71
44992;BME280;56865;51.618;7.406;2023-02-08T13:19:54;102866.84;;;18.39;73.41
44992;BME280;56865;51.618;7.406;2023-02-08T13:22:26;102862.91;;;18.23;72.89
44992;BME280;56865;51.618;7.406;2023-02-08T13:25:01;102864.34;;;18.42;66.03
44992;BME280;56865;51.618;7.406;2023-02-08T13:27:34;102854.78;;;18.68;76.17
44992;BME280;56865;51.618;7.406;2023-02-08T13:30:04;102857.38;;;18.68;66.67
44992;BME280;56865;51.618;7.406;2023-02-08T13:32:37;102848.34;;;18.84;72.92
44992;BME280;56865;51.618;7.406;2023-02-08T13:35:14;102844.19;;;18.90;71.27
44992;BME280;56865;51.618;7.406;2023-02-08T13:37:48;102839.38;;;19.00;68.00
44992;BME280;56865;51.618;7.406;2023-02-08T13:40:19;102830.69;;;18.68;67.99
44992;BME280;56865;51.618;7.406;2023-02-08T13:42:56;102829.97;;;18.74;63.67
44992;BME280;56865;51.618;7.406;2023-02-08T13:45:27;102819.66;;;18.75;62.89
44992;BME280;56865;51.618;7.406;2023-02-08T13:48:03;102816.00;;;18.97;73.12
44992;BME280;56865;51.618;7.406;2023-02-08T13:50:40;102815.22;;;19.00;67.55
44992;BME280;56865;51.618;7.406;2023-02-08T13:53:11;102808.19;;;18.94;66.30
44992;BME280;56865;51.618;7.406;2023-02-08T13:55:51;102798.91;;;19.03;71.30
44992;BME280;56865;51.618;7.406;2023-02-08T14:01:14;102795.19;;;18.93;64.99
44992;BME280;56865;51.618;7.406;2023-02-08T14:03:51;102787.06;;;18.48;71.40
44992;BME280;56865;51.618;7.406;2023-02-08T14:06:45;102788.13;;;18.26;68.93
44992;BME280;56865;51.618;7.406;2023-02-08T14:09:18;102800.25;;;17.74;62.08
44992;BME280;56865;51.618;7.406;2023-02-08T14:11:49;102797.09;;;17.55;61.50
44992;BME280;56865;51.618;7.406;2023-02-08T14:14:22;102791.75;;;17.24;68.52
44992;BME280;56865;51.618;7.406;2023-02-08T14:17:08;102793.78;;;17.08;64.21
44992;BME280;56865;51.618;7.406;2023-02-08T14:19:39;102789.59;;;16.87;64.84
44992;BME280;56865;51.618;7.406;2023-02-08T14:22:15;102786.66;;;16.77;72.70
44992;BME280;56865;51.618;7.406;2023-02-08T14:24:46;102772.78;;;16.73;69.38
44992;BME280;56865;51.618;7.406;2023-02-08T14:27:17;102769.88;;;16.41;67.45
44992;BME280;56865;51.618;7.406;2023-02-08T14:29:55;102757.84;;;16.17;76.14
44992;BME280;56865;51.618;7.406;2023-02-08T14:32:29;102762.16;;;15.96;67.23
44992;BME280;56865;51.618;7.406;2023-02-08T14:35:01;102762.34;;;15.79;67.16
44992;BME280;56865;51.618;7.406;2023-02-08T14:37:33;102751.53;;;15.86;77.67
44992;BME280;56865;51.618;7.406;2023-02-08T14:42:54;102743.38;;;15.54;74.76
44992;BME280;56865;51.618;7.406;2023-02-08T14:45:27;102747.53;;;15.30;68.76
44992;BME280;56865;51.618;7.406;2023-02-08T14:48:15;102741.75;;;15.56;76.18
44992;BME280;56865;51.618;7.406;2023-02-08T14:50:50;102746.38;;;15.23;78.72
44992;BME280;56865;51.618;7.406;2023-02-08T14:53:25;102737.34;;;15.33;83.34
44992;BME280;56865;51.618;7.406;2023-02-08T14:55:58;102735.50;;;15.09;80.86
44992;BME280;56865;51.618;7.406;2023-02-08T14:58:29;102738.56;;;15.00;71.15
44992;BME280;56865;51.618;7.406;2023-02-08T15:01:01;102730.13;;;15.03;85.04
44992;BME280;56865;51.618;7.406;2023-02-08T15:03:32;102732.69;;;15.03;84.93
44992;BME280;56865;51.618;7.406;2023-02-08T15:08:51;102723.91;;;14.98;84.17
44992;BME280;56865;51.618;7.406;2023-02-08T15:11:22;102717.72;;;14.73;77.08
44992;BME280;56865;51.618;7.406;2023-02-08T15:13:53;102707.59;;;14.76;84.73
44992;BME280;56865;51.618;7.406;2023-02-08T15:16:28;102701.56;;;14.56;82.34
44992;BME280;56865;51.618;7.406;2023-02-08T15:19:01;102706.72;;;14.18;73.22